Time;durP1;ratioP1;P1;durP2;ratioP2;P2;SDS_P1;SDS_P2;PMS_P1;PMS_P2;Temp;Humidity;BMP_temperature;BMP_pressure;BME280_temperature;BME280_humidity;BME280_pressure;Samples;Min_cycle;Max_cycle;Signal;HPM_P1;HPM_P2
2022/12/21 00:01:07;;;;;;;;;;;;;;;-144.99;100.00;52543.91;5026328;28;19939;-80
2022/12/21 00:03:33;;;;;;;;;;;;;;;-144.99;100.00;52562.25;5026016;28;20250;-80
2022/12/21 00:06:00;;;;;;;;;;;;;;;-144.99;100.00;52499.06;4678320;28;10000181;-78
2022/12/21 00:08:26;;;;;;;;;;;;;;;-144.99;100.00;52537.78;5016825;28;19944;-81
2022/12/21 00:10:59;;;;;;;;;;;;;;;-144.99;100.00;52541.84;5023397;28;19939;-79
2022/12/21 00:13:26;;;;;;;;;;;;;;;-144.99;100.00;52529.63;5023979;28;19970;-80
2022/12/21 00:15:56;;;;;;;;;;;;;;;-144.99;100.00;52543.91;5042116;23;20042;-79
2022/12/21 00:18:23;;;;;;;;;;;;;;;-144.99;100.00;52531.66;5005068;28;20034;-77
2022/12/21 00:20:56;;;;;;;;;;;;;;;-144.99;100.00;52517.41;5005544;28;19943;-76
2022/12/21 00:23:23;;;;;;;;;;;;;;;-144.99;100.00;52517.41;5005516;28;19963;-78
2022/12/21 00:25:50;;;;;;;;;;;;;;;-144.99;100.00;52509.25;5005845;28;19963;-78
2022/12/21 00:28:17;;;;;;;;;;;;;;;-144.99;100.00;52497.00;5007619;28;20753;-75
2022/12/21 00:30:44;;;;;;;;;;;;;;;-144.99;100.00;52509.25;5010810;28;19970;-78
2022/12/21 00:33:11;;;;;;;;;;;;;;;-144.99;100.00;52525.56;5020704;28;19944;-76
2022/12/21 00:35:37;;;;;;;;;;;;;;;-144.99;100.00;52517.41;5006957;28;19962;-75
2022/12/21 00:38:04;;;;;;;;;;;;;;;-144.99;100.00;52558.16;5000766;28;19943;-75
2022/12/21 00:40:31;;;;;;;;;;;;;;;-144.99;100.00;52525.56;4656802;28;9999727;-75
2022/12/21 00:42:57;;;;;;;;;;;;;;;-144.99;100.00;52509.25;4998285;28;20044;-73
2022/12/21 00:45:25;;;;;;;;;;;;;;;-144.99;100.00;52509.25;5002205;28;20042;-73
2022/12/21 00:47:52;;;;;;;;;;;;;;;-144.99;100.00;52519.44;5005198;28;20062;-71
2022/12/21 00:50:20;;;;;;;;;;;;;;;-144.99;100.00;52550.00;5003869;28;20394;-70
2022/12/21 00:52:47;;;;;;;;;;;;;;;-144.99;100.00;52541.84;5003488;28;19942;-71
2022/12/21 00:55:13;;;;;;;;;;;;;;;-144.99;100.00;52533.69;5004613;28;20372;-72
2022/12/21 00:57:40;;;;;;;;;;;;;;;-144.99;100.00;52558.16;5007005;28;19986;-73
2022/12/21 01:00:09;;;;;;;;;;;;;;;-144.99;100.00;52517.41;5005811;28;19947;-73
2022/12/21 01:02:37;;;;;;;;;;;;;;;-144.99;100.00;52513.31;4993755;28;20050;-73
2022/12/21 01:05:04;;;;;;;;;;;;;;;-144.99;100.00;52519.44;5003676;28;20345;-74
2022/12/21 01:07:30;;;;;;;;;;;;;;;-144.99;100.00;52564.28;5005486;28;19961;-76
2022/12/21 01:09:57;;;;;;;;;;;;;;;-144.99;100.00;52521.47;5005446;28;19968;-74
2022/12/21 01:12:23;;;;;;;;;;;;;;;-144.99;100.00;52529.63;5005016;28;19952;-72
2022/12/21 01:14:50;;;;;;;;;;;;;;;-144.99;100.00;52521.47;5001737;28;19947;-74
2022/12/21 01:17:16;;;;;;;;;;;;;;;-144.99;100.00;52509.25;5005541;28;19973;-75
2022/12/21 01:19:45;;;;;;;;;;;;;;;-144.99;100.00;52541.84;5004961;28;20534;-73
2022/12/21 01:22:11;;;;;;;;;;;;;;;-144.99;100.00;52513.31;5004606;28;20007;-76
2022/12/21 01:24:38;;;;;;;;;;;;;;;-144.99;100.00;52543.91;5000306;28;19958;-74
2022/12/21 01:27:04;;;;;;;;;;;;;;;-144.99;100.00;52558.16;5005216;28;19981;-74
2022/12/21 01:29:31;;;;;;;;;;;;;;;-144.99;100.00;52558.16;4996160;28;19949;-73
2022/12/21 01:31:58;;;;;;;;;;;;;;;-144.99;100.00;52492.94;5005155;28;19958;-74
2022/12/21 01:34:25;;;;;;;;;;;;;;;-144.99;100.00;52552.03;5003994;28;19965;-75
2022/12/21 01:36:53;;;;;;;;;;;;;;;-144.99;100.00;52550.00;5005527;28;19953;-74
2022/12/21 01:39:20;;;;;;;;;;;;;;;-144.99;100.00;52492.94;5005006;28;20017;-72
2022/12/21 01:41:46;;;;;;;;;;;;;;;-144.99;100.00;52521.47;5004819;28;20007;-72
2022/12/21 01:44:32;;;;;;;;;;;;;;;-144.99;100.00;52558.16;5011623;28;19957;-73
2022/12/21 01:46:58;;;;;;;;;;;;;;;-144.99;100.00;52541.84;5014630;28;19968;-72
2022/12/21 01:49:27;;;;;;;;;;;;;;;-144.99;100.00;52554.09;5005602;28;20054;-72
2022/12/21 01:51:58;;;;;;;;;;;;;;;-144.99;100.00;52545.94;5004526;28;19956;-73
2022/12/21 01:54:26;;;;;;;;;;;;;;;-144.99;100.00;52525.56;5004031;28;20005;-75
2022/12/21 01:56:56;;;;;;;;;;;;;;;-144.99;100.00;52562.25;5005254;28;20286;-71
2022/12/21 01:59:25;;;;;;;;;;;;;;;-144.99;100.00;52517.41;5002863;28;20430;-75
2022/12/21 02:01:52;;;;;;;;;;;;;;;-144.99;100.00;52490.91;5003837;28;19949;-76
2022/12/21 02:04:18;;;;;;;;;;;;;;;-144.99;100.00;52527.59;5005259;28;19966;-71
2022/12/21 02:06:48;;;;;;;;;;;;;;;-144.99;100.00;52554.09;5005548;28;19964;-72
2022/12/21 02:09:17;;;;;;;;;;;;;;;-144.99;100.00;52525.56;5005189;28;19947;-74
2022/12/21 02:11:44;;;;;;;;;;;;;;;-144.99;100.00;52545.94;5001844;28;19941;-73
2022/12/21 02:14:11;;;;;;;;;;;;;;;-144.99;100.00;52550.00;5003584;28;19947;-73
2022/12/21 02:16:42;;;;;;;;;;;;;;;-144.99;100.00;52545.94;5003289;28;20009;-70
2022/12/21 02:19:35;;;;;;;;;;;;;;;-144.99;100.00;52529.63;4999868;28;19955;-73
2022/12/21 02:22:05;;;;;;;;;;;;;;;-144.99;100.00;52501.09;5022652;28;20033;-74
2022/12/21 02:24:56;;;;;;;;;;;;;;;-144.99;100.00;52562.25;5003662;28;20432;-74
2022/12/21 02:27:55;;;;;;;;;;;;;;;-144.99;100.00;52537.78;4993778;28;19969;-74
2022/12/21 02:30:24;;;;;;;;;;;;;;;-144.99;100.00;52545.94;4986114;28;19960;-72
2022/12/21 02:33:00;;;;;;;;;;;;;;;-144.99;100.00;52560.19;4981421;28;19938;-73
2022/12/21 02:35:39;;;;;;;;;;;;;;;-144.99;100.00;52554.09;4998026;28;19954;-73
2022/12/21 02:38:13;;;;;;;;;;;;;;;-144.99;100.00;52550.00;5009013;28;20337;-73
2022/12/21 02:40:44;;;;;;;;;;;;;;;-144.99;100.00;52537.78;5008985;28;19955;-74
2022/12/21 02:46:04;;;;;;;;;;;;;;;-144.99;100.00;52558.16;5007555;28;20147;-72
2022/12/21 02:48:34;;;;;;;;;;;;;;;-144.99;100.00;52539.81;5009041;28;20011;-74
2022/12/21 02:51:02;;;;;;;;;;;;;;;-144.99;100.00;52537.78;5008220;28;20356;-72
2022/12/21 02:53:31;;;;;;;;;;;;;;;-144.99;100.00;52545.94;5006175;28;19972;-71
2022/12/21 02:55:58;;;;;;;;;;;;;;;-144.99;100.00;52582.63;5002208;28;20330;-73
2022/12/21 02:58:25;;;;;;;;;;;;;;;-144.99;100.00;52558.16;5022980;28;19939;-75
2022/12/21 03:01:06;;;;;;;;;;;;;;;-144.99;100.00;52545.94;5010092;28;20314;-73
2022/12/21 03:03:49;;;;;;;;;;;;;;;-144.99;100.00;52570.38;5006381;28;20329;-71
2022/12/21 03:06:22;;;;;;;;;;;;;;;-144.99;100.00;52566.31;5006171;28;19973;-72
2022/12/21 03:08:56;;;;;;;;;;;;;;;-144.99;100.00;52529.63;5007873;28;19958;-74
2022/12/21 03:11:24;;;;;;;;;;;;;;;-144.99;100.00;52529.63;5007607;28;20411;-69
2022/12/21 03:13:59;;;;;;;;;;;;;;;-144.99;100.00;52533.69;5004912;28;20402;-70
2022/12/21 03:16:28;;;;;;;;;;;;;;;-144.99;100.00;52558.16;4999447;28;20050;-72
2022/12/21 03:19:00;;;;;;;;;;;;;;;-144.99;100.00;52513.31;5005153;28;20432;-71
2022/12/21 03:21:32;;;;;;;;;;;;;;;-144.99;100.00;52537.78;5000559;28;19966;-71
2022/12/21 03:24:03;;;;;;;;;;;;;;;-144.99;100.00;52554.09;5009539;28;19964;-73
2022/12/21 03:26:32;;;;;;;;;;;;;;;-144.99;100.00;52545.94;5006596;28;20047;-72
2022/12/21 03:29:00;;;;;;;;;;;;;;;-144.99;100.00;52590.78;5005597;28;19976;-73
2022/12/21 03:31:29;;;;;;;;;;;;;;;-144.99;100.00;52519.44;5016973;28;19974;-73
2022/12/21 03:34:02;;;;;;;;;;;;;;;-144.99;100.00;52529.63;5016299;28;19948;-72
2022/12/21 03:36:31;;;;;;;;;;;;;;;-144.99;100.00;52515.34;5012003;28;20294;-73
2022/12/21 03:39:00;;;;;;;;;;;;;;;-144.99;100.00;52572.44;5012878;28;19967;-72
2022/12/21 03:41:30;;;;;;;;;;;;;;;-144.99;100.00;52552.03;5014452;28;19958;-73
2022/12/21 03:44:01;;;;;;;;;;;;;;;-144.99;100.00;52541.84;5012113;28;19982;-74
2022/12/21 03:46:30;;;;;;;;;;;;;;;-144.99;100.00;52584.66;5012232;28;20052;-72
2022/12/21 03:48:59;;;;;;;;;;;;;;;-144.99;100.00;52558.16;5013792;28;19952;-69
2022/12/21 03:51:29;;;;;;;;;;;;;;;-144.99;100.00;52521.47;5014021;28;19964;-74
2022/12/21 03:54:01;;;;;;;;;;;;;;;-144.99;100.00;52582.63;5012968;28;19943;-71
2022/12/21 03:56:30;;;;;;;;;;;;;;;-144.99;100.00;52564.28;5011147;28;19956;-74
2022/12/21 03:58:57;;;;;;;;;;;;;;;-144.99;100.00;52521.47;5012102;28;19963;-73
2022/12/21 04:01:32;;;;;;;;;;;;;;;-144.99;100.00;52513.31;5012787;28;19951;-72
2022/12/21 04:04:03;;;;;;;;;;;;;;;-144.99;100.00;52564.28;5012802;28;19970;-72
2022/12/21 04:06:33;;;;;;;;;;;;;;;-144.99;100.00;52586.69;5013903;28;20025;-73
2022/12/21 04:08:59;;;;;;;;;;;;;;;-144.99;100.00;52562.25;5023952;28;19970;-73
2022/12/21 04:14:17;;;;;;;;;;;;;;;-144.99;100.00;52558.16;5003481;28;19957;-69
2022/12/21 04:16:43;;;;;;;;;;;;;;;-144.99;100.00;52578.53;5006539;28;20429;-70
2022/12/21 04:21:56;;;;;;;;;;;;;;;-144.99;100.00;52578.53;5006167;28;19953;-71
2022/12/21 04:29:50;;;;;;;;;;;;;;;-144.99;100.00;52529.63;4998629;28;19955;-71
2022/12/21 04:32:17;;;;;;;;;;;;;;;-144.99;100.00;52541.84;5005933;28;19954;-69
2022/12/21 04:34:45;;;;;;;;;;;;;;;-144.99;100.00;52533.69;5004107;28;20419;-70
2022/12/21 04:39:55;;;;;;;;;;;;;;;-144.99;100.00;52566.31;4997801;28;20012;-71
2022/12/21 04:42:22;;;;;;;;;;;;;;;-144.99;100.00;52607.09;5003000;28;19939;-71
2022/12/21 04:44:49;;;;;;;;;;;;;;;-144.99;100.00;52570.38;5002547;28;19961;-70
2022/12/21 04:47:15;;;;;;;;;;;;;;;-144.99;100.00;52523.50;5018903;28;20043;-72
2022/12/21 04:49:42;;;;;;;;;;;;;;;-144.99;100.00;52507.19;5005833;28;20392;-71
2022/12/21 04:52:10;;;;;;;;;;;;;;;-144.99;100.00;52552.03;5007084;28;19965;-72
2022/12/21 04:54:36;;;;;;;;;;;;;;;-144.99;100.00;52574.47;5003545;28;19968;-70
2022/12/21 04:57:03;;;;;;;;;;;;;;;-144.99;100.00;52566.31;5006912;28;19959;-75
2022/12/21 04:59:29;;;;;;;;;;;;;;;-144.99;100.00;52554.09;5005725;28;19949;-74
2022/12/21 05:01:56;;;;;;;;;;;;;;;-144.99;100.00;52562.25;5006238;28;20427;-75
2022/12/21 05:04:23;;;;;;;;;;;;;;;-144.99;100.00;52590.78;5003412;28;19972;-76
2022/12/21 05:06:49;;;;;;;;;;;;;;;-144.99;100.00;52572.44;5004835;28;20047;-75
2022/12/21 05:09:18;;;;;;;;;;;;;;;-144.99;100.00;52545.94;5005739;28;19946;-72
2022/12/21 05:11:45;;;;;;;;;;;;;;;-144.99;100.00;52558.16;5005387;28;19952;-73
2022/12/21 05:14:11;;;;;;;;;;;;;;;-144.99;100.00;52584.66;5000726;28;19957;-73
2022/12/21 05:16:39;;;;;;;;;;;;;;;-144.99;100.00;52545.94;5006650;28;20484;-73
2022/12/21 05:19:05;;;;;;;;;;;;;;;-144.99;100.00;52582.63;4995009;28;20008;-76
2022/12/21 05:21:32;;;;;;;;;;;;;;;-144.99;100.00;52578.53;5011578;28;19946;-76
2022/12/21 05:23:59;;;;;;;;;;;;;;;-144.99;100.00;52611.16;5020296;28;19954;-75
2022/12/21 05:26:26;;;;;;;;;;;;;;;-144.99;100.00;52547.97;5005217;28;20573;-75
2022/12/21 05:28:53;;;;;;;;;;;;;;;-144.99;100.00;52568.34;5005824;28;19948;-72
2022/12/21 05:31:20;;;;;;;;;;;;;;;-144.99;100.00;52566.31;5005144;28;19955;-72
2022/12/21 05:33:46;;;;;;;;;;;;;;;-144.99;100.00;52582.63;5005516;28;20503;-75
2022/12/21 05:36:14;;;;;;;;;;;;;;;-144.99;100.00;52578.53;5004006;28;19965;-77
2022/12/21 05:38:40;;;;;;;;;;;;;;;-144.99;100.00;52582.63;5002692;28;19950;-77
2022/12/21 05:41:07;;;;;;;;;;;;;;;-144.99;100.00;52590.78;5006453;28;19948;-76
2022/12/21 05:43:35;;;;;;;;;;;;;;;-144.99;100.00;52550.00;5007332;28;19954;-75
2022/12/21 05:46:02;;;;;;;;;;;;;;;-144.99;100.00;52570.38;5006519;28;20372;-77
2022/12/21 05:48:29;;;;;;;;;;;;;;;-144.99;100.00;52566.31;5005717;28;20007;-74
2022/12/21 05:50:56;;;;;;;;;;;;;;;-144.99;100.00;52558.16;5007394;28;19943;-75
2022/12/21 05:53:22;;;;;;;;;;;;;;;-144.99;100.00;52586.69;5005262;28;20042;-81
2022/12/21 05:55:51;;;;;;;;;;;;;;;-144.99;100.00;52558.16;5005195;28;19980;-75
2022/12/21 05:58:18;;;;;;;;;;;;;;;-144.99;100.00;52562.25;5005113;28;19929;-76
2022/12/21 06:00:46;;;;;;;;;;;;;;;-144.99;100.00;52552.03;5002422;28;20045;-75
2022/12/21 06:03:13;;;;;;;;;;;;;;;-144.99;100.00;52590.78;5008423;28;20519;-76
2022/12/21 06:05:40;;;;;;;;;;;;;;;-144.99;100.00;52572.44;5008887;28;20560;-76
2022/12/21 06:08:06;;;;;;;;;;;;;;;-144.99;100.00;52590.78;5009568;28;19957;-74
2022/12/21 06:10:35;;;;;;;;;;;;;;;-144.99;100.00;52574.47;4313366;28;10000609;-76
2022/12/21 06:13:02;;;;;;;;;;;;;;;-144.99;100.00;52590.78;5004580;28;20479;-73
2022/12/21 06:15:28;;;;;;;;;;;;;;;-144.99;100.00;52558.16;5000742;28;20617;-77
2022/12/21 06:17:57;;;;;;;;;;;;;;;-144.99;100.00;52586.69;5014627;23;20045;-77
2022/12/21 06:20:24;;;;;;;;;;;;;;;-144.99;100.00;52558.16;5008160;28;19949;-74
2022/12/21 06:22:51;;;;;;;;;;;;;;;-144.99;100.00;52533.69;5007280;28;19970;-77
2022/12/21 06:25:17;;;;;;;;;;;;;;;-144.99;100.00;52600.97;5008675;28;20407;-77
2022/12/21 06:27:44;;;;;;;;;;;;;;;-144.99;100.00;52554.09;5006546;28;20368;-77
2022/12/21 06:30:11;;;;;;;;;;;;;;;-144.99;100.00;52556.13;5006164;28;20332;-77
2022/12/21 06:32:37;;;;;;;;;;;;;;;-144.99;100.00;52578.53;5007767;28;19951;-77
2022/12/21 06:35:06;;;;;;;;;;;;;;;-144.99;100.00;52582.63;5008532;28;19956;-77
2022/12/21 06:37:33;;;;;;;;;;;;;;;-144.99;100.00;52545.94;5007666;28;20357;-77
2022/12/21 06:39:59;;;;;;;;;;;;;;;-144.99;100.00;52594.84;5008791;28;19956;-77
2022/12/21 06:42:26;;;;;;;;;;;;;;;-144.99;100.00;52558.16;5008079;28;20329;-77
2022/12/21 06:44:52;;;;;;;;;;;;;;;-144.99;100.00;52592.81;5007020;28;19992;-77
2022/12/21 06:47:19;;;;;;;;;;;;;;;-144.99;100.00;52582.63;5006555;28;20313;-77
2022/12/21 06:49:45;;;;;;;;;;;;;;;-144.99;100.00;52566.31;5006915;28;20330;-76
2022/12/21 06:52:13;;;;;;;;;;;;;;;-144.99;100.00;52564.28;5007673;28;19958;-77
2022/12/21 06:54:40;;;;;;;;;;;;;;;-144.99;100.00;52556.13;5007869;28;19951;-77
2022/12/21 06:57:06;;;;;;;;;;;;;;;-144.99;100.00;52574.47;5013445;28;20436;-75
2022/12/21 06:59:35;;;;;;;;;;;;;;;-144.99;100.00;52541.84;5010975;28;20438;-77
2022/12/21 07:02:02;;;;;;;;;;;;;;;-144.99;100.00;52615.25;5015392;28;20114;-77
2022/12/21 07:04:29;;;;;;;;;;;;;;;-144.99;100.00;52562.25;5007283;28;19945;-76
2022/12/21 07:06:55;;;;;;;;;;;;;;;-144.99;100.00;52603.00;5006191;28;19957;-78
2022/12/21 07:09:23;;;;;;;;;;;;;;;-144.99;100.00;52558.16;5005379;28;19974;-77
2022/12/21 07:11:52;;;;;;;;;;;;;;;-144.99;100.00;52566.31;5005475;28;19950;-77
2022/12/21 07:14:19;;;;;;;;;;;;;;;-144.99;100.00;52574.47;5004609;28;19945;-75
2022/12/21 07:16:45;;;;;;;;;;;;;;;-144.99;100.00;52566.31;5002973;28;20434;-76
2022/12/21 07:19:12;;;;;;;;;;;;;;;-144.99;100.00;52570.38;4998047;28;19947;-76
2022/12/21 07:21:38;;;;;;;;;;;;;;;-144.99;100.00;52550.00;5006300;28;19950;-76
2022/12/21 07:24:05;;;;;;;;;;;;;;;-144.99;100.00;52566.31;5006805;28;19946;-76
2022/12/21 07:26:33;;;;;;;;;;;;;;;-144.99;100.00;52568.34;5007772;28;20281;-76
2022/12/21 07:29:00;;;;;;;;;;;;;;;-144.99;100.00;52603.00;5007920;28;19952;-77
2022/12/21 07:31:27;;;;;;;;;;;;;;;-144.99;100.00;52590.78;5006278;28;19942;-77
2022/12/21 07:33:54;;;;;;;;;;;;;;;-144.99;100.00;52586.69;5007932;28;20320;-77
2022/12/21 07:36:20;;;;;;;;;;;;;;;-144.99;100.00;52586.69;5007891;28;19948;-76
2022/12/21 07:38:47;;;;;;;;;;;;;;;-144.99;100.00;52566.31;5008251;28;20011;-77
2022/12/21 07:41:14;;;;;;;;;;;;;;;-144.99;100.00;52582.63;5006194;28;19947;-76
2022/12/21 07:43:43;;;;;;;;;;;;;;;-144.99;100.00;52615.25;5006377;28;20401;-76
2022/12/21 07:46:10;;;;;;;;;;;;;;;-144.99;100.00;52594.84;5005914;28;20019;-74
2022/12/21 07:48:36;;;;;;;;;;;;;;;-144.99;100.00;52633.59;5007533;28;20508;-75
2022/12/21 07:51:03;;;;;;;;;;;;;;;-144.99;100.00;52607.09;5008040;28;20198;-76
2022/12/21 07:53:30;;;;;;;;;;;;;;;-144.99;100.00;52613.19;5001644;28;20455;-77
2022/12/21 07:55:59;;;;;;;;;;;;;;;-144.99;100.00;52603.00;5006662;28;19952;-74
2022/12/21 07:58:25;;;;;;;;;;;;;;;-144.99;100.00;52566.31;5006143;28;19954;-75
2022/12/21 08:00:53;;;;;;;;;;;;;;;-144.99;100.00;52576.50;5007947;28;20480;-76
2022/12/21 08:03:20;;;;;;;;;;;;;;;-144.99;100.00;52627.47;5006357;28;19952;-76
2022/12/21 08:05:46;;;;;;;;;;;;;;;-144.99;100.00;52582.63;5009251;28;20431;-75
2022/12/21 08:08:13;;;;;;;;;;;;;;;-144.99;100.00;52603.00;5008999;28;20325;-76
2022/12/21 08:10:40;;;;;;;;;;;;;;;-144.99;100.00;52582.63;5009077;28;20012;-76
2022/12/21 08:13:06;;;;;;;;;;;;;;;-144.99;100.00;52554.09;5006720;28;20374;-76
2022/12/21 08:15:33;;;;;;;;;;;;;;;-144.99;100.00;52570.38;4655359;28;9999975;-76
2022/12/21 08:18:01;;;;;;;;;;;;;;;-144.99;100.00;52560.19;5026671;28;20011;-76
2022/12/21 08:20:27;;;;;;;;;;;;;;;-144.99;100.00;52582.63;5030894;28;19926;-78
2022/12/21 08:22:54;;;;;;;;;;;;;;;-144.99;100.00;52574.47;5032722;28;19953;-77
2022/12/21 08:25:20;;;;;;;;;;;;;;;-144.99;100.00;52586.69;5032160;28;19945;-79
2022/12/21 08:27:47;;;;;;;;;;;;;;;-144.99;100.00;52586.69;5030461;28;20158;-78
2022/12/21 08:30:15;;;;;;;;;;;;;;;-144.99;100.00;52574.47;5031486;28;19969;-77
2022/12/21 08:32:41;;;;;;;;;;;;;;;-144.99;100.00;52582.63;5032010;28;19948;-78
2022/12/21 08:35:10;;;;;;;;;;;;;;;-144.99;100.00;52582.63;5031512;28;19930;-77
2022/12/21 08:37:36;;;;;;;;;;;;;;;-144.99;100.00;52554.09;5020889;28;20164;-76
2022/12/21 08:40:03;;;;;;;;;;;;;;;-144.99;100.00;52607.09;5007002;28;20327;-77
2022/12/21 08:42:30;;;;;;;;;;;;;;;-144.99;100.00;52570.38;5006208;28;19954;-76
2022/12/21 08:44:56;;;;;;;;;;;;;;;-144.99;100.00;52550.00;5005383;28;20033;-77
2022/12/21 08:47:23;;;;;;;;;;;;;;;-144.99;100.00;52537.78;5004441;28;19966;-78
2022/12/21 08:49:49;;;;;;;;;;;;;;;-144.99;100.00;52562.25;5005616;28;19950;-77
2022/12/21 08:52:17;;;;;;;;;;;;;;;-144.99;100.00;52594.84;5005084;28;19949;-75
2022/12/21 08:54:44;;;;;;;;;;;;;;;-144.99;100.00;52552.03;5004442;28;20417;-76
2022/12/21 08:57:10;;;;;;;;;;;;;;;-144.99;100.00;52541.84;5000249;28;19957;-76
2022/12/21 08:59:37;;;;;;;;;;;;;;;-144.99;100.00;52570.38;5004588;28;19946;-77
2022/12/21 09:02:04;;;;;;;;;;;;;;;-144.99;100.00;52562.25;5004413;28;20315;-76
2022/12/21 09:04:30;;;;;;;;;;;;;;;-144.99;100.00;52558.16;5002616;28;20381;-78
2022/12/21 09:06:57;;;;;;;;;;;;;;;-144.99;100.00;52562.25;5002130;28;19967;-76
2022/12/21 09:09:25;;;;;;;;;;;;;;;-144.99;100.00;52570.38;5005078;28;19953;-76
2022/12/21 09:11:51;;;;;;;;;;;;;;;-144.99;100.00;52598.94;5005801;28;19961;-77
2022/12/21 09:14:18;;;;;;;;;;;;;;;-144.99;100.00;52550.00;5003055;28;20721;-75
2022/12/21 09:16:44;;;;;;;;;;;;;;;-144.99;100.00;52545.94;5006757;28;20481;-75
2022/12/21 09:19:11;;;;;;;;;;;;;;;-144.99;100.00;52578.53;5003328;28;19954;-76
2022/12/21 09:21:38;;;;;;;;;;;;;;;-144.99;100.00;52578.53;5006647;28;19951;-75
2022/12/21 09:24:05;;;;;;;;;;;;;;;-144.99;100.00;52558.16;5006307;28;20009;-74
2022/12/21 09:26:33;;;;;;;;;;;;;;;-144.99;100.00;52578.53;5004794;28;19962;-74
2022/12/21 09:28:59;;;;;;;;;;;;;;;-144.99;100.00;52574.47;5003117;28;19947;-75
2022/12/21 09:31:26;;;;;;;;;;;;;;;-144.99;100.00;52586.69;5006028;28;20503;-76
2022/12/21 09:33:53;;;;;;;;;;;;;;;-144.99;100.00;52550.00;5008852;28;19947;-75
2022/12/21 09:36:20;;;;;;;;;;;;;;;-144.99;100.00;52550.00;5010747;28;19958;-76
2022/12/21 09:38:47;;;;;;;;;;;;;;;-144.99;100.00;52582.63;5009162;28;19959;-76
2022/12/21 09:41:23;;;;;;;;;;;;;;;-144.99;100.00;52566.31;5008444;28;19958;-76
2022/12/21 09:43:56;;;;;;;;;;;;;;;-144.99;100.00;52570.38;5003847;28;19947;-77
2022/12/21 09:46:24;;;;;;;;;;;;;;;-144.99;100.00;52566.31;5001992;28;19959;-75
2022/12/21 09:48:52;;;;;;;;;;;;;;;-144.99;100.00;52562.25;5004678;28;19970;-76
2022/12/21 09:51:21;;;;;;;;;;;;;;;-144.99;100.00;52558.16;5003961;28;20374;-77
2022/12/21 09:53:51;;;;;;;;;;;;;;;-144.99;100.00;52554.09;5004075;28;19958;-74
2022/12/21 09:56:19;;;;;;;;;;;;;;;-144.99;100.00;52582.63;5002055;28;19940;-77
2022/12/21 09:58:48;;;;;;;;;;;;;;;-144.99;100.00;52592.81;5003696;28;19982;-77
2022/12/21 10:01:19;;;;;;;;;;;;;;;-144.99;100.00;52545.94;5002555;28;20048;-77
2022/12/21 10:03:53;;;;;;;;;;;;;;;-144.99;100.00;52550.00;5003295;28;19947;-77
2022/12/21 10:06:25;;;;;;;;;;;;;;;-144.99;100.00;52545.94;5004621;28;19982;-77
2022/12/21 10:08:58;;;;;;;;;;;;;;;-144.99;100.00;52525.56;5005091;28;19971;-76
2022/12/21 10:11:32;;;;;;;;;;;;;;;-144.99;100.00;52586.69;5004117;28;20333;-76
2022/12/21 10:14:04;;;;;;;;;;;;;;;-144.99;100.00;52578.53;5004244;28;19981;-77
2022/12/21 10:16:41;;;;;;;;;;;;;;;-144.99;100.00;52533.69;5002066;28;20033;-77
2022/12/21 10:19:15;;;;;;;;;;;;;;;-144.99;100.00;52570.38;5002575;28;20397;-77
2022/12/21 10:21:47;;;;;;;;;;;;;;;-144.99;100.00;52590.78;5004560;28;19997;-76
2022/12/21 10:24:20;;;;;;;;;;;;;;;-144.99;100.00;52568.34;5005177;28;19952;-77
2022/12/21 10:26:48;;;;;;;;;;;;;;;-144.99;100.00;52578.53;5004505;28;19929;-77
2022/12/21 10:29:17;;;;;;;;;;;;;;;-144.99;100.00;52541.84;5002770;28;19959;-76
2022/12/21 10:31:46;;;;;;;;;;;;;;;-144.99;100.00;52562.25;5004263;28;19990;-77
2022/12/21 10:34:16;;;;;;;;;;;;;;;-144.99;100.00;52578.53;5002805;28;19946;-76
2022/12/21 10:36:43;;;;;;;;;;;;;;;-144.99;100.00;52558.16;5003793;28;20304;-75
2022/12/21 10:39:13;;;;;;;;;;;;;;;-144.99;100.00;52547.97;5004270;28;20209;-77
2022/12/21 10:41:41;;;;;;;;;;;;;;;-144.99;100.00;52558.16;5003427;28;20365;-76
2022/12/21 10:44:11;;;;;;;;;;;;;;;-144.99;100.00;52607.09;5002671;28;19983;-76
2022/12/21 10:46:38;;;;;;;;;;;;;;;-144.99;100.00;52594.84;5001619;28;19960;-77
2022/12/21 10:49:14;;;;;;;;;;;;;;;-144.99;100.00;52582.63;5005310;28;20041;-77
2022/12/21 10:51:40;;;;;;;;;;;;;;;-144.99;100.00;52603.00;5007843;28;20320;-77
2022/12/21 10:54:08;;;;;;;;;;;;;;;-144.99;100.00;52554.09;5004368;28;20495;-77
2022/12/21 10:56:35;;;;;;;;;;;;;;;-144.99;100.00;52562.25;5006582;28;19944;-77
2022/12/21 10:59:07;;;;;;;;;;;;;;;-144.99;100.00;52582.63;5004105;28;19954;-79
2022/12/21 11:01:33;;;;;;;;;;;;;;;-144.99;100.00;52594.84;5007632;28;20398;-78
2022/12/21 11:04:09;;;;;;;;;;;;;;;-144.99;100.00;52550.00;5005374;28;20453;-77
2022/12/21 11:06:36;;;;;;;;;;;;;;;-144.99;100.00;52533.69;5003173;28;19963;-77
2022/12/21 11:09:04;;;;;;;;;;;;;;;-144.99;100.00;52590.78;5007410;28;19959;-76
2022/12/21 11:11:32;;;;;;;;;;;;;;;-144.99;100.00;52578.53;5007389;28;20050;-77
2022/12/21 11:14:00;;;;;;;;;;;;;;;-144.99;100.00;52558.16;5005295;28;20389;-77
2022/12/21 11:16:28;;;;;;;;;;;;;;;-144.99;100.00;52566.31;5007430;28;19951;-77
2022/12/21 11:18:58;;;;;;;;;;;;;;;-144.99;100.00;52513.31;5007801;28;20058;-77
2022/12/21 11:21:38;;;;;;;;;;;;;;;-144.99;100.00;52545.94;5008051;28;19951;-77
2022/12/21 11:24:08;;;;;;;;;;;;;;;-144.99;100.00;52578.53;5005681;28;20732;-77
2022/12/21 11:26:38;;;;;;;;;;;;;;;-144.99;100.00;52625.44;5005213;28;19959;-77
2022/12/21 11:29:06;;;;;;;;;;;;;;;-144.99;100.00;52596.88;4993102;28;20325;-77
2022/12/21 11:31:34;;;;;;;;;;;;;;;-144.99;100.00;52570.38;5007784;28;20005;-77
2022/12/21 11:34:00;;;;;;;;;;;;;;;-144.99;100.00;52550.00;5007615;28;20431;-77
2022/12/21 11:36:27;;;;;;;;;;;;;;;-144.99;100.00;52554.09;4999460;28;20002;-76
2022/12/21 11:38:55;;;;;;;;;;;;;;;-144.99;100.00;52541.84;5009414;28;19971;-76
2022/12/21 11:41:25;;;;;;;;;;;;;;;-144.99;100.00;52584.66;5007740;28;20316;-77
2022/12/21 11:43:52;;;;;;;;;;;;;;;-144.99;100.00;52570.38;5006423;28;19945;-76
2022/12/21 11:46:38;;;;;;;;;;;;;;;-144.99;100.00;52562.25;5004188;28;19966;-76
2022/12/21 11:49:16;;;;;;;;;;;;;;;-144.99;100.00;52541.84;5007458;28;19979;-76
2022/12/21 11:51:46;;;;;;;;;;;;;;;-144.99;100.00;52541.84;5006327;28;20385;-77
2022/12/21 11:54:22;;;;;;;;;;;;;;;-144.99;100.00;52562.25;5007868;28;19959;-77
2022/12/21 11:56:51;;;;;;;;;;;;;;;-144.99;100.00;52582.63;5006469;28;20400;-76
2022/12/21 11:59:36;;;;;;;;;;;;;;;-144.99;100.00;52570.38;5004812;28;20320;-77
2022/12/21 12:02:14;;;;;;;;;;;;;;;-144.99;100.00;52533.69;5003963;28;19955;-76
2022/12/21 12:04:48;;;;;;;;;;;;;;;-144.99;100.00;52541.84;5007402;28;19957;-76
2022/12/21 12:07:24;;;;;;;;;;;;;;;-144.99;100.00;52554.09;5007612;28;20432;-76
2022/12/21 12:10:03;;;;;;;;;;;;;;;-144.99;100.00;52566.31;4991131;28;19950;-75
2022/12/21 12:12:33;;;;;;;;;;;;;;;-144.99;100.00;52521.47;4991100;28;19947;-75
2022/12/21 12:15:15;;;;;;;;;;;;;;;-144.99;100.00;52566.31;5018219;28;19966;-77
2022/12/21 12:17:50;;;;;;;;;;;;;;;-144.99;100.00;52582.63;5043878;23;19959;-74
2022/12/21 12:20:26;;;;;;;;;;;;;;;-144.99;100.00;52570.38;5010335;28;19961;-77
2022/12/21 12:22:57;;;;;;;;;;;;;;;-144.99;100.00;52547.97;5003184;28;19949;-73
2022/12/21 12:25:31;;;;;;;;;;;;;;;-144.99;100.00;52578.53;5003314;28;19972;-76
2022/12/21 12:28:18;;;;;;;;;;;;;;;-144.99;100.00;52550.00;4998091;28;20310;-75
2022/12/21 12:30:53;;;;;;;;;;;;;;;-144.99;100.00;52590.78;4997805;28;19949;-77
2022/12/21 12:33:23;;;;;;;;;;;;;;;-144.99;100.00;52603.00;5002856;28;20100;-76
2022/12/21 12:35:58;;;;;;;;;;;;;;;-144.99;100.00;52570.38;5003381;28;19948;-74
2022/12/21 12:38:26;;;;;;;;;;;;;;;-144.99;100.00;52552.03;5002710;28;19987;-74
2022/12/21 12:41:03;;;;;;;;;;;;;;;-144.99;100.00;52550.00;5002825;28;20260;-76
2022/12/21 12:43:36;;;;;;;;;;;;;;;-144.99;100.00;52541.84;4997474;28;19951;-74